Time;durP1;ratioP1;P1;durP2;ratioP2;P2;SDS_P1;SDS_P2;PMS_P1;PMS_P2;Temp;Humidity;BMP_temperature;BMP_pressure;BME280_temperature;BME280_humidity;BME280_pressure;Samples;Min_cycle;Max_cycle;Signal;HPM_P1;HPM_P2
2022/06/27 00:00:04;;;;;;;1.30;1.30;;;;;;;;;;5085357;28;20384;-70
2022/06/27 00:02:30;;;;;;;1.30;1.30;;;;;;;;;;5085249;28;20429;-70
2022/06/27 00:04:58;;;;;;;1.73;1.30;;;;;;;;;;5085563;28;20220;-70
2022/06/27 00:07:24;;;;;;;1.40;1.40;;;;;;;;;;5084943;28;20200;-70
2022/06/27 00:09:50;;;;;;;3.05;1.20;;;;;;;;;;5085142;28;20211;-70
2022/06/27 00:12:16;;;;;;;1.02;1.02;;;;;;;;;;5084989;28;20534;-70
2022/06/27 00:14:43;;;;;;;0.70;0.70;;;;;;;;;;5085183;28;20200;-70
2022/06/27 00:17:09;;;;;;;0.68;0.68;;;;;;;;;;5084794;28;20373;-70
2022/06/27 00:19:35;;;;;;;1.08;0.60;;;;;;;;;;5084935;28;20216;-70
2022/06/27 00:22:04;;;;;;;1.05;0.60;;;;;;;;;;5084878;28;20203;-70
2022/06/27 00:24:30;;;;;;;0.65;0.50;;;;;;;;;;5084795;28;20201;-70
2022/06/27 00:26:56;;;;;;;5.57;0.40;;;;;;;;;;5084474;28;20203;-70
2022/06/27 00:29:23;;;;;;;2.10;0.75;;;;;;;;;;5084901;28;20199;-70
2022/06/27 00:31:49;;;;;;;0.38;0.38;;;;;;;;;;5084494;28;20205;-70
2022/06/27 00:34:16;;;;;;;2.50;0.43;;;;;;;;;;5083844;28;20196;-70
2022/06/27 00:36:42;;;;;;;1.00;0.40;;;;;;;;;;5084269;28;20195;-70
2022/06/27 00:39:10;;;;;;;4.22;0.60;;;;;;;;;;5084206;28;20236;-70
2022/06/27 00:41:36;;;;;;;2.05;0.73;;;;;;;;;;5084633;28;20516;-70
2022/06/27 00:44:03;;;;;;;2.83;0.45;;;;;;;;;;5084621;28;20203;-69
2022/06/27 00:46:29;;;;;;;3.08;0.80;;;;;;;;;;5084301;28;20670;-69
2022/06/27 00:48:55;;;;;;;2.58;0.70;;;;;;;;;;5084331;28;20193;-69
2022/06/27 00:51:24;;;;;;;5.32;1.00;;;;;;;;;;5084301;28;20197;-69
2022/06/27 00:53:50;;;;;;;4.13;0.70;;;;;;;;;;5084054;28;20228;-69
2022/06/27 00:56:18;;;;;;;3.58;0.90;;;;;;;;;;5084140;28;20222;-69
2022/06/27 00:58:44;;;;;;;3.47;1.25;;;;;;;;;;5084130;28;20321;-69
2022/06/27 01:01:10;;;;;;;3.90;1.10;;;;;;;;;;5084172;28;20196;-69
2022/06/27 01:03:37;;;;;;;4.53;1.10;;;;;;;;;;5084015;28;20412;-69
2022/06/27 01:06:03;;;;;;;1.48;0.68;;;;;;;;;;5083577;28;20223;-69
2022/06/27 01:08:29;;;;;;;7.00;1.40;;;;;;;;;;5084321;28;20197;-69
2022/06/27 01:10:56;;;;;;;5.13;1.05;;;;;;;;;;5084081;28;20263;-69
2022/06/27 01:13:24;;;;;;;2.38;0.93;;;;;;;;;;5083808;28;20197;-69
2022/06/27 01:15:50;;;;;;;3.97;1.02;;;;;;;;;;5083773;28;20196;-69
2022/06/27 01:18:17;;;;;;;4.82;0.90;;;;;;;;;;5083558;28;20254;-69
2022/06/27 01:20:44;;;;;;;2.67;0.60;;;;;;;;;;5083467;28;20217;-69
2022/06/27 01:23:12;;;;;;;2.22;0.50;;;;;;;;;;5083772;28;20496;-69
2022/06/27 01:25:38;;;;;;;2.30;0.57;;;;;;;;;;5083543;28;20197;-69
2022/06/27 01:28:05;;;;;;;0.73;0.47;;;;;;;;;;5083471;28;20549;-69
2022/06/27 01:30:31;;;;;;;4.78;0.98;;;;;;;;;;5082725;28;20200;-70
2022/06/27 01:32:58;;;;;;;1.55;0.50;;;;;;;;;;5083358;28;20211;-70
2022/06/27 01:35:24;;;;;;;1.80;0.50;;;;;;;;;;5083793;28;20196;-70
2022/06/27 01:37:51;;;;;;;0.70;0.45;;;;;;;;;;5083158;28;20204;-70
2022/06/27 01:40:18;;;;;;;5.45;0.80;;;;;;;;;;5083301;28;20227;-70
2022/06/27 01:42:45;;;;;;;2.53;0.50;;;;;;;;;;5083229;28;20207;-70
2022/06/27 01:45:12;;;;;;;1.05;0.40;;;;;;;;;;5083077;28;20196;-70
2022/06/27 01:47:38;;;;;;;1.92;0.50;;;;;;;;;;5083066;28;20393;-70
2022/06/27 01:50:05;;;;;;;1.00;0.57;;;;;;;;;;5083287;28;20428;-70
2022/06/27 01:52:32;;;;;;;0.70;0.25;;;;;;;;;;5082997;28;20203;-70
2022/06/27 01:54:59;;;;;;;0.50;0.50;;;;;;;;;;5082985;28;20204;-70
2022/06/27 01:57:26;;;;;;;2.42;0.40;;;;;;;;;;5082805;28;20422;-70
2022/06/27 01:59:53;;;;;;;1.40;0.40;;;;;;;;;;5082687;28;20212;-70
2022/06/27 02:02:19;;;;;;;1.70;0.57;;;;;;;;;;5083131;28;20196;-70
2022/06/27 02:04:47;;;;;;;1.65;0.60;;;;;;;;;;5082712;28;20211;-70
2022/06/27 02:07:13;;;;;;;2.25;0.63;;;;;;;;;;5082532;28;20197;-70
2022/06/27 02:09:39;;;;;;;2.88;0.50;;;;;;;;;;5082664;28;20197;-70
2022/06/27 02:12:19;;;;;;;0.60;0.50;;;;;;;;;;5082786;28;20204;-70
2022/06/27 02:14:48;;;;;;;0.75;0.50;;;;;;;;;;5082800;28;20197;-70
2022/06/27 02:17:14;;;;;;;2.08;0.40;;;;;;;;;;5082563;28;20496;-70
2022/06/27 02:19:41;;;;;;;0.85;0.40;;;;;;;;;;5082391;28;20224;-70
2022/06/27 02:22:07;;;;;;;0.50;0.50;;;;;;;;;;5082554;28;20203;-70
2022/06/27 02:24:34;;;;;;;1.38;0.60;;;;;;;;;;5082483;28;20215;-70
2022/06/27 02:27:00;;;;;;;2.80;0.63;;;;;;;;;;5082178;28;20200;-70
2022/06/27 02:29:27;;;;;;;1.25;0.50;;;;;;;;;;5082465;28;20192;-70
2022/06/27 02:31:54;;;;;;;1.17;0.73;;;;;;;;;;5082679;28;20208;-70
2022/06/27 02:34:21;;;;;;;1.20;0.50;;;;;;;;;;5082189;28;20196;-70
2022/06/27 02:36:49;;;;;;;1.23;0.47;;;;;;;;;;5082186;28;20203;-70
2022/06/27 02:39:17;;;;;;;1.80;0.45;;;;;;;;;;5082211;28;20227;-70
2022/06/27 02:41:43;;;;;;;0.60;0.60;;;;;;;;;;5082282;28;20526;-70
2022/06/27 02:44:10;;;;;;;1.55;0.40;;;;;;;;;;5082440;28;20410;-70
2022/06/27 02:46:37;;;;;;;1.70;0.40;;;;;;;;;;5082086;28;20203;-70
2022/06/27 02:49:05;;;;;;;1.40;0.43;;;;;;;;;;5082203;28;20189;-70
2022/06/27 02:51:34;;;;;;;1.27;0.40;;;;;;;;;;5082234;28;20510;-70
2022/06/27 02:54:03;;;;;;;0.52;0.50;;;;;;;;;;5082093;28;20200;-70
2022/06/27 02:56:30;;;;;;;0.65;0.32;;;;;;;;;;5081631;28;20526;-70
2022/06/27 02:59:01;;;;;;;0.43;0.40;;;;;;;;;;5082281;28;20203;-70
2022/06/27 03:01:29;;;;;;;1.05;0.40;;;;;;;;;;5082169;28;20224;-70
2022/06/27 03:03:56;;;;;;;1.40;0.50;;;;;;;;;;5082063;28;20196;-70
2022/06/27 03:06:24;;;;;;;0.88;0.80;;;;;;;;;;5081686;28;20562;-70
2022/06/27 03:08:50;;;;;;;0.80;0.60;;;;;;;;;;5082258;28;20451;-70
2022/06/27 03:11:17;;;;;;;0.85;0.55;;;;;;;;;;5082123;28;20275;-70
2022/06/27 03:13:44;;;;;;;3.08;0.52;;;;;;;;;;5082154;28;20402;-70
2022/06/27 03:16:11;;;;;;;0.65;0.40;;;;;;;;;;5081971;28;20203;-70
2022/06/27 03:18:37;;;;;;;0.55;0.55;;;;;;;;;;5081976;28;20200;-70
2022/06/27 03:21:04;;;;;;;2.70;0.47;;;;;;;;;;5081780;28;20218;-70
2022/06/27 03:23:31;;;;;;;1.98;0.70;;;;;;;;;;5082103;28;20202;-70
2022/06/27 03:25:58;;;;;;;2.15;0.45;;;;;;;;;;5081912;28;20204;-70
2022/06/27 03:28:24;;;;;;;1.30;0.60;;;;;;;;;;5081879;28;20373;-70
2022/06/27 03:30:51;;;;;;;0.95;0.63;;;;;;;;;;5081800;28;20223;-70
2022/06/27 03:33:17;;;;;;;1.13;0.40;;;;;;;;;;5081920;28;20196;-70
2022/06/27 03:35:44;;;;;;;0.65;0.55;;;;;;;;;;5081726;28;20204;-70
2022/06/27 03:38:12;;;;;;;1.65;0.57;;;;;;;;;;5081712;28;20204;-70
2022/06/27 03:40:39;;;;;;;2.17;0.60;;;;;;;;;;5081877;28;20216;-70
2022/06/27 03:43:06;;;;;;;3.47;0.60;;;;;;;;;;5081833;28;20203;-70
2022/06/27 03:45:32;;;;;;;2.40;0.57;;;;;;;;;;5081774;28;20197;-70
2022/06/27 03:48:00;;;;;;;3.35;0.75;;;;;;;;;;5081912;28;20469;-70
2022/06/27 03:50:25;;;;;;;1.77;0.90;;;;;;;;;;5081613;28;20193;-70
2022/06/27 03:52:52;;;;;;;0.60;0.60;;;;;;;;;;5081644;28;20263;-70
2022/06/27 03:55:19;;;;;;;2.55;0.60;;;;;;;;;;5082018;28;20386;-70
2022/06/27 03:57:50;;;;;;;1.40;0.80;;;;;;;;;;5081394;28;20197;-70
2022/06/27 04:00:18;;;;;;;2.28;0.60;;;;;;;;;;5081406;28;20216;-70
2022/06/27 04:02:44;;;;;;;2.42;0.90;;;;;;;;;;5081414;28;20203;-70
2022/06/27 04:05:10;;;;;;;3.33;0.77;;;;;;;;;;5081487;28;20540;-70
2022/06/27 04:07:38;;;;;;;1.25;0.50;;;;;;;;;;5080567;28;20196;-70
2022/06/27 04:10:05;;;;;;;1.65;0.98;;;;;;;;;;5084871;28;20207;-70
2022/06/27 04:12:31;;;;;;;2.28;0.60;;;;;;;;;;5084973;28;20203;-70
2022/06/27 04:14:59;;;;;;;1.00;0.88;;;;;;;;;;5084852;28;20203;-70
2022/06/27 04:17:25;;;;;;;3.67;0.80;;;;;;;;;;5084536;28;20516;-68
2022/06/27 04:19:51;;;;;;;2.42;1.02;;;;;;;;;;5084997;28;20204;-68
2022/06/27 04:22:18;;;;;;;3.88;1.10;;;;;;;;;;5084891;28;20208;-68
2022/06/27 04:24:44;;;;;;;3.72;0.80;;;;;;;;;;5084914;28;20202;-68
2022/06/27 04:27:10;;;;;;;1.95;0.95;;;;;;;;;;5084529;28;20196;-68
2022/06/27 04:29:36;;;;;;;1.70;0.98;;;;;;;;;;5084602;28;20478;-68
2022/06/27 04:32:07;;;;;;;3.40;0.90;;;;;;;;;;5084868;28;20189;-68
2022/06/27 04:34:33;;;;;;;1.10;1.00;;;;;;;;;;5084761;28;20427;-68
2022/06/27 04:37:00;;;;;;;5.03;0.90;;;;;;;;;;5084614;28;20235;-68
2022/06/27 04:39:26;;;;;;;2.58;0.95;;;;;;;;;;5084688;28;20197;-68
2022/06/27 04:41:52;;;;;;;1.65;1.00;;;;;;;;;;5084377;28;20216;-68
2022/06/27 04:44:19;;;;;;;1.38;1.10;;;;;;;;;;5084246;28;20371;-68
2022/06/27 04:46:47;;;;;;;4.10;1.90;;;;;;;;;;5084319;28;20275;-68
2022/06/27 04:49:15;;;;;;;5.22;1.73;;;;;;;;;;5084468;28;20196;-68
2022/06/27 04:51:42;;;;;;;4.75;1.30;;;;;;;;;;5084349;28;20192;-68
2022/06/27 04:54:08;;;;;;;2.72;1.20;;;;;;;;;;5084234;28;20197;-68
2022/06/27 04:56:35;;;;;;;3.47;1.30;;;;;;;;;;5083953;28;20201;-68
2022/06/27 04:59:01;;;;;;;3.53;1.20;;;;;;;;;;5083992;28;20203;-68
2022/06/27 05:01:27;;;;;;;4.32;1.38;;;;;;;;;;5083925;28;20222;-68
2022/06/27 05:03:53;;;;;;;2.97;1.38;;;;;;;;;;5083891;28;20238;-68
2022/06/27 05:06:21;;;;;;;1.60;1.45;;;;;;;;;;5083670;28;20234;-68
2022/06/27 05:08:47;;;;;;;4.22;1.52;;;;;;;;;;5083923;28;20196;-68
2022/06/27 05:11:14;;;;;;;1.98;1.55;;;;;;;;;;5083890;28;20267;-68
2022/06/27 05:13:40;;;;;;;4.38;2.53;;;;;;;;;;5083768;28;20204;-68
2022/06/27 05:16:06;;;;;;;2.50;1.40;;;;;;;;;;5083797;28;20196;-68
2022/06/27 05:18:33;;;;;;;1.58;1.27;;;;;;;;;;5083484;28;20207;-68
2022/06/27 05:20:59;;;;;;;4.82;1.13;;;;;;;;;;5083764;28;20216;-68
2022/06/27 05:23:27;;;;;;;8.88;1.27;;;;;;;;;;5083689;28;20196;-68
2022/06/27 05:25:53;;;;;;;2.92;1.10;;;;;;;;;;5083606;28;20203;-68
2022/06/27 05:28:19;;;;;;;3.60;1.40;;;;;;;;;;5083682;28;20196;-68
2022/06/27 05:30:47;;;;;;;2.33;1.40;;;;;;;;;;5083463;28;20223;-68
2022/06/27 05:33:13;;;;;;;1.52;1.30;;;;;;;;;;5083561;28;20268;-68
2022/06/27 05:35:40;;;;;;;4.35;1.10;;;;;;;;;;5083624;28;20196;-68
2022/06/27 05:38:06;;;;;;;1.75;1.15;;;;;;;;;;5083243;28;20503;-68
2022/06/27 05:40:35;;;;;;;2.13;1.45;;;;;;;;;;5083227;28;20289;-68
2022/06/27 05:43:13;;;;;;;5.10;1.70;;;;;;;;;;5083584;28;20200;-68
2022/06/27 05:45:39;;;;;;;2.13;0.93;;;;;;;;;;5081641;28;20218;-68
2022/06/27 05:48:06;;;;;;;0.82;0.82;;;;;;;;;;5082957;28;20202;-68
2022/06/27 05:50:33;;;;;;;3.83;0.95;;;;;;;;;;5083031;28;20279;-68
2022/06/27 05:53:00;;;;;;;2.45;1.10;;;;;;;;;;5083051;28;20224;-69
2022/06/27 05:55:28;;;;;;;1.23;1.02;;;;;;;;;;5083206;28;20196;-68
2022/06/27 05:57:56;;;;;;;2.30;1.30;;;;;;;;;;5082812;28;20196;-68
2022/06/27 06:00:23;;;;;;;5.03;1.60;;;;;;;;;;5082698;28;20268;-68
2022/06/27 06:02:49;;;;;;;2.90;1.33;;;;;;;;;;5082721;28;20196;-68
2022/06/27 06:05:17;;;;;;;2.90;1.08;;;;;;;;;;5083369;28;20216;-68
2022/06/27 06:07:44;;;;;;;3.40;1.27;;;;;;;;;;5082365;28;20224;-68
2022/06/27 06:10:10;;;;;;;2.05;1.40;;;;;;;;;;5082944;28;20196;-68
2022/06/27 06:12:37;;;;;;;3.30;1.75;;;;;;;;;;5082890;28;20271;-69
2022/06/27 06:15:05;;;;;;;2.25;1.10;;;;;;;;;;5082661;28;20203;-69
2022/06/27 06:17:34;;;;;;;1.88;1.25;;;;;;;;;;5082422;28;20203;-69
2022/06/27 06:20:01;;;;;;;11.00;1.50;;;;;;;;;;5082594;28;20267;-69
2022/06/27 06:22:28;;;;;;;1.65;1.23;;;;;;;;;;5082289;28;20219;-62
2022/06/27 06:24:54;;;;;;;2.35;1.75;;;;;;;;;;5082634;28;20267;-62
2022/06/27 06:27:21;;;;;;;2.92;1.10;;;;;;;;;;5082312;28;20197;-62
2022/06/27 06:29:47;;;;;;;1.55;0.80;;;;;;;;;;5073543;28;20674;-62
2022/06/27 06:32:15;;;;;;;3.28;1.23;;;;;;;;;;5074254;28;20396;-63
2022/06/27 06:34:42;;;;;;;4.10;1.40;;;;;;;;;;5060208;28;20216;-62
2022/06/27 06:37:09;;;;;;;7.30;1.30;;;;;;;;;;5075661;28;20415;-62
2022/06/27 06:39:36;;;;;;;2.30;0.95;;;;;;;;;;5075634;28;20247;-62
2022/06/27 06:42:02;;;;;;;1.10;0.90;;;;;;;;;;5073617;28;20579;-62
2022/06/27 06:44:29;;;;;;;2.13;0.93;;;;;;;;;;5075248;28;20235;-62
2022/06/27 06:46:56;;;;;;;2.55;1.20;;;;;;;;;;5072422;28;20236;-62
2022/06/27 06:49:23;;;;;;;3.08;1.80;;;;;;;;;;5074907;28;20323;-63
2022/06/27 06:51:49;;;;;;;2.10;0.88;;;;;;;;;;5074545;28;20398;-62
2022/06/27 06:54:18;;;;;;;1.65;0.98;;;;;;;;;;5074827;28;20235;-63
2022/06/27 06:56:46;;;;;;;7.38;1.23;;;;;;;;;;5074487;28;20240;-62
2022/06/27 06:59:13;;;;;;;2.95;0.80;;;;;;;;;;5074534;28;20570;-61
2022/06/27 07:01:41;;;;;;;1.70;0.80;;;;;;;;;;5074107;28;20452;-62
2022/06/27 07:04:08;;;;;;;7.20;1.10;;;;;;;;;;5074048;28;20482;-62
2022/06/27 07:06:36;;;;;;;1.02;0.93;;;;;;;;;;5074266;28;20469;-62
2022/06/27 07:09:02;;;;;;;3.05;1.00;;;;;;;;;;5073449;28;20220;-63
2022/06/27 07:11:29;;;;;;;2.20;1.38;;;;;;;;;;5073175;28;20208;-63
2022/06/27 07:13:56;;;;;;;1.90;0.82;;;;;;;;;;5073542;28;20273;-64
2022/06/27 07:16:24;;;;;;;2.80;0.80;;;;;;;;;;5073641;28;20212;-61
2022/06/27 07:18:50;;;;;;;1.60;1.23;;;;;;;;;;5074049;28;20234;-64
2022/06/27 07:21:18;;;;;;;1.08;1.08;;;;;;;;;;5073382;28;20247;-64
2022/06/27 07:23:47;;;;;;;1.80;0.70;;;;;;;;;;5073948;28;20206;-64
2022/06/27 07:26:14;;;;;;;5.13;0.68;;;;;;;;;;5073446;28;20211;-64
2022/06/27 07:28:41;;;;;;;2.67;0.80;;;;;;;;;;5073865;28;20215;-64
2022/06/27 07:31:11;;;;;;;1.48;0.82;;;;;;;;;;5072950;28;20220;-63
2022/06/27 07:33:38;;;;;;;3.35;0.60;;;;;;;;;;5073786;28;20614;-63
2022/06/27 07:36:06;;;;;;;0.65;0.65;;;;;;;;;;5074249;28;20216;-63
2022/06/27 07:38:36;;;;;;;2.75;0.88;;;;;;;;;;5074091;28;20212;-64
2022/06/27 07:41:04;;;;;;;2.10;0.75;;;;;;;;;;5069497;28;20261;-64
2022/06/27 07:43:31;;;;;;;1.27;0.52;;;;;;;;;;5076900;28;20216;-63
2022/06/27 07:45:58;;;;;;;3.53;0.75;;;;;;;;;;5077015;28;20458;-63
2022/06/27 07:48:25;;;;;;;2.47;0.70;;;;;;;;;;5076694;28;20261;-64
2022/06/27 07:50:51;;;;;;;1.38;0.60;;;;;;;;;;5076637;28;20212;-64
2022/06/27 07:53:19;;;;;;;0.60;0.60;;;;;;;;;;5076632;28;20281;-63
2022/06/27 07:55:48;;;;;;;0.68;0.65;;;;;;;;;;5076942;28;20216;-63
2022/06/27 07:58:16;;;;;;;1.77;0.70;;;;;;;;;;5077012;28;20203;-63
2022/06/27 08:00:43;;;;;;;3.33;0.88;;;;;;;;;;5076801;28;20212;-63
2022/06/27 08:05:50;;;;;;;2.75;0.70;;;;;;;;;;5077015;28;20341;-64
2022/06/27 08:08:17;;;;;;;0.55;0.50;;;;;;;;;;5076617;28;20282;-63
2022/06/27 08:10:43;;;;;;;0.70;0.40;;;;;;;;;;5076025;28;20262;-63
2022/06/27 08:13:10;;;;;;;1.58;0.50;;;;;;;;;;5077438;28;20212;-64
2022/06/27 08:15:37;;;;;;;1.85;0.73;;;;;;;;;;5077521;28;20207;-64
2022/06/27 08:18:04;;;;;;;0.73;0.73;;;;;;;;;;5073707;28;20277;-64
2022/06/27 08:20:30;;;;;;;0.40;0.40;;;;;;;;;;5076271;28;20408;-64
2022/06/27 08:22:57;;;;;;;0.93;0.77;;;;;;;;;;5076234;28;20544;-64
2022/06/27 08:25:23;;;;;;;0.60;0.60;;;;;;;;;;5076809;28;20219;-64
2022/06/27 08:27:49;;;;;;;0.50;0.50;;;;;;;;;;5076189;28;20685;-64
2022/06/27 08:30:16;;;;;;;0.50;0.50;;;;;;;;;;5075745;28;20281;-63
2022/06/27 08:32:44;;;;;;;1.23;1.13;;;;;;;;;;5077012;28;20237;-63
2022/06/27 08:35:11;;;;;;;0.95;0.95;;;;;;;;;;5076162;28;20216;-63
2022/06/27 08:37:38;;;;;;;0.73;0.60;;;;;;;;;;5075873;28;20516;-62
2022/06/27 08:40:06;;;;;;;1.00;0.60;;;;;;;;;;5076448;28;20228;-61
2022/06/27 08:42:33;;;;;;;0.60;0.60;;;;;;;;;;5076577;28;20250;-61
2022/06/27 08:45:01;;;;;;;0.60;0.60;;;;;;;;;;5076865;28;20298;-61
2022/06/27 08:47:27;;;;;;;0.40;0.40;;;;;;;;;;5075984;28;20257;-62
2022/06/27 08:49:55;;;;;;;0.40;0.40;;;;;;;;;;5075791;28;20235;-61
2022/06/27 08:52:21;;;;;;;0.50;0.50;;;;;;;;;;5075436;28;20270;-62
2022/06/27 08:54:51;;;;;;;0.60;0.60;;;;;;;;;;5075503;28;20238;-61
2022/06/27 08:57:18;;;;;;;0.70;0.70;;;;;;;;;;5075644;28;20218;-62
2022/06/27 08:59:44;;;;;;;0.65;0.50;;;;;;;;;;5076140;28;20219;-61
2022/06/27 09:02:16;;;;;;;0.85;0.50;;;;;;;;;;5075518;28;20224;-62
2022/06/27 09:04:55;;;;;;;0.70;0.70;;;;;;;;;;5075918;28;20282;-62
2022/06/27 09:07:23;;;;;;;0.60;0.60;;;;;;;;;;5075979;28;20414;-62
2022/06/27 09:09:49;;;;;;;0.82;0.82;;;;;;;;;;5075545;28;20216;-62
2022/06/27 09:12:17;;;;;;;2.40;0.65;;;;;;;;;;5075045;28;20531;-62
2022/06/27 09:14:43;;;;;;;0.50;0.45;;;;;;;;;;5076317;28;20615;-62
2022/06/27 09:17:13;;;;;;;0.40;0.40;;;;;;;;;;5075010;28;20242;-63
2022/06/27 09:19:47;;;;;;;0.95;0.90;;;;;;;;;;5074960;28;20512;-63
2022/06/27 09:22:15;;;;;;;0.90;0.90;;;;;;;;;;5074970;28;20547;-63
2022/06/27 09:24:57;;;;;;;0.50;0.50;;;;;;;;;;5074989;28;20207;-63
2022/06/27 09:27:35;;;;;;;0.40;0.30;;;;;;;;;;5075196;28;20212;-63
2022/06/27 09:30:22;;;;;;;3.30;0.60;;;;;;;;;;5075672;28;20250;-64
2022/06/27 09:32:49;;;;;;;1.88;0.60;;;;;;;;;;5073783;28;20234;-62
2022/06/27 09:35:23;;;;;;;1.33;0.50;;;;;;;;;;5075216;28;20419;-62
2022/06/27 09:37:52;;;;;;;2.10;0.50;;;;;;;;;;5075208;28;20215;-62
2022/06/27 09:40:20;;;;;;;0.70;0.70;;;;;;;;;;5074882;28;20234;-62
2022/06/27 09:42:47;;;;;;;4.88;1.00;;;;;;;;;;5075521;28;20405;-62
2022/06/27 09:45:14;;;;;;;1.27;0.70;;;;;;;;;;5075424;28;20212;-62
2022/06/27 09:47:42;;;;;;;5.00;0.80;;;;;;;;;;5074975;28;20212;-62
2022/06/27 09:50:09;;;;;;;0.95;0.95;;;;;;;;;;5074862;28;20204;-62
2022/06/27 09:52:36;;;;;;;3.15;0.65;;;;;;;;;;5075258;28;20506;-62
2022/06/27 09:55:02;;;;;;;1.00;0.60;;;;;;;;;;5075057;28;20282;-62
2022/06/27 09:57:30;;;;;;;1.38;0.60;;;;;;;;;;5074878;28;20414;-62
2022/06/27 09:59:56;;;;;;;3.33;0.73;;;;;;;;;;5075316;28;20215;-62
2022/06/27 10:02:23;;;;;;;2.00;0.70;;;;;;;;;;5074031;28;20230;-62
2022/06/27 10:04:51;;;;;;;0.90;0.52;;;;;;;;;;5074315;28;20235;-62
2022/06/27 10:07:19;;;;;;;0.60;0.60;;;;;;;;;;5073506;28;20545;-62
2022/06/27 10:09:48;;;;;;;3.95;0.70;;;;;;;;;;5074776;28;20216;-62
2022/06/27 10:12:21;;;;;;;0.93;0.77;;;;;;;;;;5074113;28;20258;-62
2022/06/27 10:15:12;;;;;;;1.00;0.93;;;;;;;;;;5074752;28;20226;-61
2022/06/27 10:17:41;;;;;;;0.77;0.77;;;;;;;;;;5074430;28;20249;-63
2022/06/27 10:20:08;;;;;;;0.80;0.77;;;;;;;;;;5074116;28;20278;-63
2022/06/27 10:22:34;;;;;;;0.80;0.60;;;;;;;;;;5074114;28;20259;-63
2022/06/27 10:25:15;;;;;;;2.15;1.15;;;;;;;;;;5074408;28;20200;-62
2022/06/27 10:27:42;;;;;;;0.80;0.80;;;;;;;;;;5071497;28;20204;-62
2022/06/27 10:30:32;;;;;;;1.10;0.88;;;;;;;;;;5072838;28;20219;-61
2022/06/27 10:32:58;;;;;;;2.60;1.48;;;;;;;;;;5073717;28;20211;-62
2022/06/27 10:35:26;;;;;;;0.75;0.73;;;;;;;;;;5073188;28;20271;-62
2022/06/27 10:37:52;;;;;;;0.60;0.60;;;;;;;;;;5073638;28;20208;-62
2022/06/27 10:40:52;;;;;;;0.88;0.88;;;;;;;;;;5073870;28;20211;-62
2022/06/27 10:43:37;;;;;;;0.82;0.82;;;;;;;;;;5074670;28;20282;-62
2022/06/27 10:46:27;;;;;;;2.15;0.60;;;;;;;;;;5071044;28;20207;-62
2022/06/27 10:48:54;;;;;;;1.02;0.93;;;;;;;;;;5073270;28;20212;-62
2022/06/27 10:51:22;;;;;;;2.75;1.48;;;;;;;;;;5073105;28;20216;-63
2022/06/27 10:53:48;;;;;;;1.42;1.42;;;;;;;;;;5074127;28;20233;-62
2022/06/27 10:56:35;;;;;;;0.85;0.85;;;;;;;;;;5073539;28;20211;-63
2022/06/27 10:59:03;;;;;;;1.25;1.25;;;;;;;;;;5070770;28;20456;-62
2022/06/27 11:01:31;;;;;;;1.50;1.50;;;;;;;;;;5073367;28;20216;-63
2022/06/27 11:03:58;;;;;;;1.70;1.60;;;;;;;;;;5073873;28;20321;-63
2022/06/27 11:06:24;;;;;;;1.30;1.13;;;;;;;;;;5073158;28;20223;-62
2022/06/27 11:08:52;;;;;;;1.73;1.40;;;;;;;;;;5073905;28;20219;-62
2022/06/27 11:11:19;;;;;;;1.75;1.65;;;;;;;;;;5073303;28;20231;-62
2022/06/27 11:13:46;;;;;;;1.50;1.50;;;;;;;;;;5073995;28;20279;-63
2022/06/27 11:16:16;;;;;;;1.23;1.13;;;;;;;;;;5073938;28;20852;-63
2022/06/27 11:18:48;;;;;;;2.58;1.50;;;;;;;;;;5077688;28;20239;-62
2022/06/27 11:21:15;;;;;;;1.60;1.40;;;;;;;;;;5077433;28;20228;-62
2022/06/27 11:23:49;;;;;;;1.80;1.63;;;;;;;;;;5078005;28;20223;-62
2022/06/27 11:26:15;;;;;;;2.08;1.90;;;;;;;;;;5077545;28;20511;-62
2022/06/27 11:34:11;;;;;;;2.05;1.38;;;;;;;;;;5077871;28;20250;-62
2022/06/27 11:36:39;;;;;;;1.52;1.42;;;;;;;;;;5077350;28;20212;-62
2022/06/27 11:39:05;;;;;;;1.50;1.30;;;;;;;;;;5077638;28;20283;-63
2022/06/27 11:41:32;;;;;;;1.50;1.40;;;;;;;;;;5076682;28;20234;-63
2022/06/27 11:44:01;;;;;;;3.15;2.95;;;;;;;;;;5076883;28;20717;-64
2022/06/27 11:46:32;;;;;;;1.85;1.55;;;;;;;;;;5077674;28;20212;-64
2022/06/27 11:48:59;;;;;;;2.78;1.33;;;;;;;;;;5077402;28;20602;-63
2022/06/27 11:51:28;;;;;;;1.25;1.10;;;;;;;;;;5076573;28;20212;-63
2022/06/27 11:53:55;;;;;;;1.45;1.35;;;;;;;;;;5077770;28;20442;-63
2022/06/27 11:56:22;;;;;;;2.13;1.70;;;;;;;;;;5077351;28;20380;-63
2022/06/27 11:58:52;;;;;;;1.20;1.10;;;;;;;;;;5077211;28;20207;-63
2022/06/27 12:01:18;;;;;;;1.10;1.00;;;;;;;;;;5076787;28;20265;-63
2022/06/27 12:04:00;;;;;;;1.83;1.67;;;;;;;;;;5076831;28;20243;-63
2022/06/27 12:06:30;;;;;;;3.28;1.30;;;;;;;;;;5076400;28;20454;-63
2022/06/27 12:09:01;;;;;;;1.75;1.52;;;;;;;;;;5076951;28;20410;-65
2022/06/27 12:11:29;;;;;;;1.10;1.10;;;;;;;;;;5076004;28;20203;-65
2022/06/27 12:13:58;;;;;;;2.63;1.38;;;;;;;;;;5076800;28;20219;-64
2022/06/27 12:16:25;;;;;;;4.55;1.38;;;;;;;;;;5076340;28;20219;-64
2022/06/27 12:18:52;;;;;;;1.52;1.40;;;;;;;;;;5076430;28;20224;-64
2022/06/27 12:21:18;;;;;;;1.40;1.30;;;;;;;;;;5075782;28;20212;-64
2022/06/27 12:23:46;;;;;;;1.30;1.17;;;;;;;;;;5077320;28;20212;-64
2022/06/27 12:26:12;;;;;;;1.73;1.60;;;;;;;;;;5075994;28;20212;-64
2022/06/27 12:28:40;;;;;;;1.30;1.20;;;;;;;;;;5075282;28;20218;-64
2022/06/27 12:31:06;;;;;;;1.33;1.25;;;;;;;;;;5076243;28;20246;-63
2022/06/27 12:33:33;;;;;;;1.50;1.40;;;;;;;;;;5076725;28;20214;-63
2022/06/27 12:35:59;;;;;;;1.40;1.40;;;;;;;;;;5076316;28;20211;-63
2022/06/27 12:38:25;;;;;;;4.07;1.60;;;;;;;;;;5076347;28;20224;-63
2022/06/27 12:41:11;;;;;;;1.30;1.30;;;;;;;;;;5075622;28;20220;-63
2022/06/27 12:43:37;;;;;;;1.80;1.40;;;;;;;;;;5077003;28;20477;-63
2022/06/27 12:46:05;;;;;;;2.50;1.60;;;;;;;;;;5072882;28;20227;-63
2022/06/27 12:48:32;;;;;;;1.52;1.48;;;;;;;;;;5076532;28;20383;-64
2022/06/27 12:50:58;;;;;;;1.60;1.42;;;;;;;;;;5075748;28;20219;-64
2022/06/27 12:53:25;;;;;;;1.67;1.00;;;;;;;;;;5076111;28;20314;-64
2022/06/27 12:55:53;;;;;;;1.25;1.25;;;;;;;;;;5075867;28;20212;-63
2022/06/27 12:58:20;;;;;;;1.23;1.17;;;;;;;;;;5076203;28;20216;-64
2022/06/27 13:00:46;;;;;;;1.60;1.10;;;;;;;;;;5075309;28;20218;-64
2022/06/27 13:03:14;;;;;;;1.30;1.30;;;;;;;;;;5075484;28;20236;-64
2022/06/27 13:05:40;;;;;;;1.85;1.13;;;;;;;;;;5076538;28;20252;-64
2022/06/27 13:08:07;;;;;;;1.40;1.27;;;;;;;;;;5076057;28;20212;-63
2022/06/27 13:10:34;;;;;;;1.40;1.30;;;;;;;;;;5075640;28;20219;-62
2022/06/27 13:13:02;;;;;;;1.45;1.35;;;;;;;;;;5075434;28;20215;-61
2022/06/27 13:15:29;;;;;;;1.25;1.25;;;;;;;;;;5075744;28;20578;-64
2022/06/27 13:17:55;;;;;;;1.50;1.50;;;;;;;;;;5075381;28;20262;-63
2022/06/27 13:20:22;;;;;;;1.60;1.50;;;;;;;;;;5074880;28;20222;-63
2022/06/27 13:22:48;;;;;;;1.80;1.60;;;;;;;;;;5075127;28;20232;-63
2022/06/27 13:25:14;;;;;;;1.90;1.80;;;;;;;;;;5075495;28;20212;-63
2022/06/27 13:27:40;;;;;;;2.00;1.80;;;;;;;;;;5075454;28;20211;-63
2022/06/27 13:30:09;;;;;;;2.10;1.90;;;;;;;;;;5065463;28;20226;-63
2022/06/27 13:32:35;;;;;;;1.73;1.63;;;;;;;;;;5075427;28;20218;-62
2022/06/27 13:35:01;;;;;;;2.47;2.40;;;;;;;;;;5075738;28;20539;-62
2022/06/27 13:37:28;;;;;;;2.15;2.05;;;;;;;;;;5075571;28;20542;-62
2022/06/27 13:39:54;;;;;;;2.17;2.00;;;;;;;;;;5074336;28;20219;-62
2022/06/27 13:42:20;;;;;;;1.42;1.42;;;;;;;;;;5075038;28;20195;-62
2022/06/27 13:44:47;;;;;;;2.10;1.45;;;;;;;;;;5075568;28;20238;-62
2022/06/27 13:47:14;;;;;;;2.40;1.70;;;;;;;;;;5073660;28;20216;-61
2022/06/27 13:49:40;;;;;;;1.42;1.33;;;;;;;;;;5073833;28;20565;-61
2022/06/27 13:52:07;;;;;;;1.83;1.23;;;;;;;;;;5074983;28;20519;-62
2022/06/27 13:54:33;;;;;;;2.83;1.45;;;;;;;;;;5074597;28;20208;-61
2022/06/27 13:57:00;;;;;;;1.65;1.30;;;;;;;;;;5075159;28;20204;-63
2022/06/27 13:59:26;;;;;;;2.22;1.80;;;;;;;;;;5075146;28;20212;-62
2022/06/27 14:01:53;;;;;;;2.08;1.85;;;;;;;;;;5074220;28;20616;-62
2022/06/27 14:04:20;;;;;;;1.60;1.02;;;;;;;;;;5074552;28;20232;-62
2022/06/27 14:09:30;;;;;;;2.42;0.90;;;;;;;;;;5074553;28;20238;-62
2022/06/27 14:11:57;;;;;;;4.30;1.00;;;;;;;;;;5074279;28;20230;-62
2022/06/27 14:14:23;;;;;;;2.10;1.90;;;;;;;;;;5074691;28;20214;-63
2022/06/27 14:16:50;;;;;;;4.70;1.00;;;;;;;;;;5074225;28;20219;-62
2022/06/27 14:19:17;;;;;;;1.15;1.15;;;;;;;;;;5074652;28;20547;-63
2022/06/27 14:21:44;;;;;;;1.33;1.20;;;;;;;;;;5073547;28;20246;-64
2022/06/27 14:24:11;;;;;;;0.77;0.73;;;;;;;;;;5074248;28;20216;-63
2022/06/27 14:26:37;;;;;;;1.27;1.27;;;;;;;;;;5075019;28;20416;-63
2022/06/27 14:29:04;;;;;;;1.55;1.10;;;;;;;;;;5074805;28;20219;-64
2022/06/27 14:31:30;;;;;;;1.05;0.80;;;;;;;;;;5073675;28;20220;-62
2022/06/27 14:33:56;;;;;;;0.90;0.90;;;;;;;;;;5074065;28;20207;-62
2022/06/27 14:36:23;;;;;;;1.30;0.90;;;;;;;;;;5073205;28;20542;-62
2022/06/27 14:38:51;;;;;;;0.88;0.88;;;;;;;;;;5074406;28;20215;-62
2022/06/27 14:41:17;;;;;;;1.17;1.08;;;;;;;;;;5074289;28;20207;-62
2022/06/27 14:43:43;;;;;;;0.85;0.85;;;;;;;;;;5074191;28;20232;-62
2022/06/27 14:46:09;;;;;;;0.90;0.90;;;;;;;;;;5073992;28;20218;-61
2022/06/27 14:48:36;;;;;;;1.13;1.13;;;;;;;;;;5074145;28;20428;-62
2022/06/27 14:51:02;;;;;;;0.90;0.90;;;;;;;;;;5073009;28;20220;-61
2022/06/27 14:53:28;;;;;;;1.05;1.05;;;;;;;;;;5073477;28;20373;-61
2022/06/27 14:55:57;;;;;;;2.85;1.05;;;;;;;;;;5073903;28;20208;-64